Time;durP1;ratioP1;P1;durP2;ratioP2;P2;SDS_P1;SDS_P2;PMS_P1;PMS_P2;Temp;Humidity;BMP_temperature;BMP_pressure;BME280_temperature;BME280_humidity;BME280_pressure;Samples;Min_cycle;Max_cycle;Signal;HPM_P1;HPM_P2
2023/06/29 00:01:33;;;;;;;0.20;0.20;;;;;;;16.05;100.00;98609.29;103989;1266;60050;-48
2023/06/29 00:04:01;;;;;;;0.20;0.20;;;;;;;16.05;100.00;98606.52;105931;1265;60559;-47
2023/06/29 00:06:36;;;;;;;0.40;0.10;;;;;;;16.04;100.00;98600.98;106799;1263;73463;-49
2023/06/29 00:09:04;;;;;;;0.70;0.20;;;;;;;16.02;100.00;98603.88;104543;1265;66655;-49
2023/06/29 00:11:31;;;;;;;2.60;0.10;;;;;;;15.99;100.00;98598.78;103727;1273;71401;-49
2023/06/29 00:13:59;;;;;;;1.60;0.20;;;;;;;15.95;100.00;98600.55;103954;1268;60452;-49
2023/06/29 00:16:26;;;;;;;0.10;0.10;;;;;;;15.92;100.00;98599.50;104025;1264;60059;-49
2023/06/29 00:18:54;;;;;;;0.30;0.20;;;;;;;15.91;100.00;98598.40;104074;1266;71697;-50
2023/06/29 00:21:21;;;;;;;0.10;0.10;;;;;;;15.88;100.00;98594.39;104008;1265;67552;-49
2023/06/29 00:23:53;;;;;;;0.20;0.10;;;;;;;15.88;100.00;98592.10;104162;1263;72485;-48
2023/06/29 00:26:20;;;;;;;1.30;0.20;;;;;;;15.88;100.00;98594.08;104254;1262;60761;-49
2023/06/29 00:28:48;;;;;;;0.30;0.20;;;;;;;15.89;100.00;98592.71;104198;1266;59626;-47
2023/06/29 00:31:16;;;;;;;0.70;0.20;;;;;;;15.90;100.00;98591.04;105730;1267;71884;-48
2023/06/29 00:33:43;;;;;;;1.00;0.20;;;;;;;15.89;100.00;98586.75;106019;1267;69190;-48
2023/06/29 00:36:11;;;;;;;0.40;0.20;;;;;;;15.89;100.00;98588.60;104033;1268;71415;-48
2023/06/29 00:38:38;;;;;;;1.30;0.20;;;;;;;15.85;100.00;98591.05;104236;1267;60874;-47
2023/06/29 00:41:05;;;;;;;0.30;0.20;;;;;;;15.79;100.00;98589.05;103954;1261;60238;-48
2023/06/29 00:43:32;;;;;;;0.70;0.20;;;;;;;15.74;100.00;98589.34;104358;1266;71747;-49
2023/06/29 00:46:07;;;;;;;0.20;0.20;;;;;;;15.72;100.00;98589.40;104092;1268;66776;-47
2023/06/29 00:48:36;;;;;;;0.50;0.20;;;;;;;15.70;100.00;98587.55;104074;1263;71498;-48
2023/06/29 00:51:04;;;;;;;0.60;0.20;;;;;;;15.67;100.00;98585.66;103887;1262;60411;-46
2023/06/29 00:53:31;;;;;;;1.30;0.20;;;;;;;15.62;100.00;98587.87;104174;1263;59750;-46
2023/06/29 00:56:00;;;;;;;0.20;0.20;;;;;;;15.60;100.00;98583.94;104343;1262;74050;-46
2023/06/29 00:58:28;;;;;;;0.90;0.20;;;;;;;15.58;100.00;98583.71;108443;1261;68648;-47
2023/06/29 01:00:57;;;;;;;1.70;0.20;;;;;;;15.56;100.00;98580.52;104456;1268;73298;-46
2023/06/29 01:03:27;;;;;;;0.50;0.30;;;;;;;15.51;100.00;98583.02;108244;1266;61635;-48
2023/06/29 01:05:56;;;;;;;0.30;0.20;;;;;;;15.41;100.00;98586.05;108282;1262;60053;-48
2023/06/29 01:08:29;;;;;;;0.50;0.20;;;;;;;15.34;100.00;98584.16;108493;1262;71768;-47
2023/06/29 01:10:57;;;;;;;3.50;0.20;;;;;;;15.30;100.00;98584.35;108503;1261;68054;-47
2023/06/29 01:13:24;;;;;;;0.30;0.20;;;;;;;15.28;100.00;98583.98;108758;1257;72423;-47
2023/06/29 01:15:51;;;;;;;0.30;0.10;;;;;;;15.26;100.00;98578.17;108706;1257;60386;-49
2023/06/29 01:18:19;;;;;;;0.80;0.20;;;;;;;15.27;100.00;98578.66;108558;1258;58161;-48
2023/06/29 01:20:49;;;;;;;2.60;0.20;;;;;;;15.26;100.00;98579.03;108567;1256;73413;-46
2023/06/29 01:23:18;;;;;;;1.40;0.40;;;;;;;15.26;100.00;98578.69;108595;1257;66794;-46
2023/06/29 01:25:46;;;;;;;0.60;0.20;;;;;;;15.24;100.00;98578.86;108540;1258;74862;-47
2023/06/29 01:28:13;;;;;;;0.90;0.20;;;;;;;15.21;100.00;98578.80;108522;1259;59989;-46
2023/06/29 01:30:49;;;;;;;0.80;0.20;;;;;;;15.19;100.00;98576.84;108637;1258;60582;-48
2023/06/29 01:33:21;;;;;;;0.80;0.20;;;;;;;15.16;100.00;98574.88;108545;1262;73424;-48
2023/06/29 01:35:50;;;;;;;0.40;0.20;;;;;;;15.13;100.00;98573.10;108498;1260;66296;-47
2023/06/29 01:38:24;;;;;;;1.70;0.10;;;;;;;15.10;100.00;98572.98;108564;1257;71443;-47
2023/06/29 01:40:51;;;;;;;0.60;0.20;;;;;;;15.09;100.00;98578.36;108568;1256;61710;-48
2023/06/29 01:43:18;;;;;;;0.30;0.20;;;;;;;15.07;100.00;98577.61;105228;1264;60595;-46
2023/06/29 01:45:46;;;;;;;0.30;0.20;;;;;;;15.07;100.00;98575.29;104100;1257;70979;-47
2023/06/29 01:48:14;;;;;;;0.20;0.20;;;;;;;15.07;100.00;98574.52;104941;1264;66580;-46
2023/06/29 01:50:42;;;;;;;0.80;0.30;;;;;;;15.06;100.00;98574.83;104380;1263;73836;-48
2023/06/29 01:53:09;;;;;;;0.20;0.10;;;;;;;15.04;100.00;98575.17;104179;1256;62908;-45
2023/06/29 01:55:36;;;;;;;0.40;0.20;;;;;;;15.04;100.00;98571.23;104309;1257;59767;-47
2023/06/29 01:58:04;;;;;;;0.10;0.10;;;;;;;15.04;100.00;98570.88;104563;1261;73003;-46
2023/06/29 02:00:31;;;;;;;2.00;0.20;;;;;;;15.02;100.00;98573.17;104452;1258;67672;-45
2023/06/29 02:02:58;;;;;;;0.20;0.10;;;;;;;14.99;100.00;98565.27;104384;1262;70439;-47
2023/06/29 02:05:26;;;;;;;0.30;0.10;;;;;;;14.98;100.00;98567.55;105253;1262;63965;-47
2023/06/29 02:07:56;;;;;;;0.50;0.20;;;;;;;15.00;100.00;98569.38;104514;1262;59639;-47
2023/06/29 02:10:23;;;;;;;0.20;0.10;;;;;;;15.01;100.00;98568.57;104277;1257;71779;-48
2023/06/29 02:12:51;;;;;;;0.30;0.10;;;;;;;15.02;100.00;98567.38;104541;1259;68162;-48
2023/06/29 02:15:18;;;;;;;0.30;0.20;;;;;;;15.01;100.00;98567.63;104517;1263;72991;-48
2023/06/29 02:17:45;;;;;;;0.70;0.20;;;;;;;15.01;100.00;98568.34;104288;1258;62179;-47
2023/06/29 02:20:13;;;;;;;0.70;0.20;;;;;;;15.03;100.00;98568.42;105398;1262;61044;-49
2023/06/29 02:22:40;;;;;;;0.70;0.10;;;;;;;15.04;100.00;98568.86;104403;1263;72005;-49
2023/06/29 02:25:10;;;;;;;0.20;0.10;;;;;;;15.04;100.00;98570.66;104405;1262;66458;-47
2023/06/29 02:27:41;;;;;;;0.60;0.10;;;;;;;15.05;100.00;98566.55;105419;1262;73687;-47
2023/06/29 02:30:09;;;;;;;0.20;0.10;;;;;;;15.06;100.00;98564.35;104676;1260;62463;-49
2023/06/29 02:32:37;;;;;;;0.50;0.10;;;;;;;15.07;100.00;98565.33;104601;1260;59544;-49
2023/06/29 02:35:05;;;;;;;0.70;0.10;;;;;;;15.08;100.00;98563.80;104861;1257;73972;-49
2023/06/29 02:37:33;;;;;;;0.40;0.10;;;;;;;15.08;100.00;98564.88;104974;1263;68448;-47
2023/06/29 02:40:01;;;;;;;0.50;0.10;;;;;;;15.08;100.00;98565.27;104712;1262;71406;-48
2023/06/29 02:42:29;;;;;;;0.20;0.20;;;;;;;15.08;100.00;98561.83;104658;1265;61532;-48
2023/06/29 02:44:59;;;;;;;0.20;0.10;;;;;;;15.09;100.00;98566.78;104700;1263;60502;-48
2023/06/29 02:47:29;;;;;;;2.00;0.20;;;;;;;15.09;100.00;98563.55;104861;1263;70868;-48
2023/06/29 02:49:58;;;;;;;0.20;0.10;;;;;;;15.07;100.00;98562.24;105026;1260;67638;-48
2023/06/29 02:52:27;;;;;;;0.10;0.10;;;;;;;15.06;100.00;98563.47;105153;1260;71768;-47
2023/06/29 02:54:56;;;;;;;0.50;0.20;;;;;;;15.06;100.00;98561.67;104738;1262;62310;-49
2023/06/29 02:57:23;;;;;;;0.20;0.20;;;;;;;15.05;100.00;98557.20;104702;1262;59765;-49
2023/06/29 02:59:51;;;;;;;0.10;0.10;;;;;;;15.07;100.00;98556.52;104817;1263;71580;-50
2023/06/29 03:02:19;;;;;;;0.70;0.20;;;;;;;15.07;100.00;98555.72;104727;1262;69290;-49
2023/06/29 03:04:46;;;;;;;0.20;0.10;;;;;;;15.09;100.00;98554.67;104810;1261;74630;-48
2023/06/29 03:07:15;;;;;;;0.20;0.10;;;;;;;15.10;100.00;98554.04;104261;1261;62372;-49
2023/06/29 03:09:43;;;;;;;3.20;0.20;;;;;;;15.13;100.00;98552.39;104616;1262;59969;-47
2023/06/29 03:12:10;;;;;;;0.50;0.30;;;;;;;15.14;100.00;98554.04;104468;1257;73368;-48
2023/06/29 03:14:37;;;;;;;1.20;0.30;;;;;;;15.14;100.00;98550.98;104495;1264;66376;-48
2023/06/29 03:17:05;;;;;;;0.30;0.20;;;;;;;15.12;100.00;98551.00;104445;1263;72707;-48
2023/06/29 03:19:33;;;;;;;0.20;0.20;;;;;;;15.10;100.00;98549.14;104808;1262;61967;-48
2023/06/29 03:22:00;;;;;;;0.20;0.20;;;;;;;15.08;100.00;98553.81;104226;1260;59734;-51
2023/06/29 03:24:27;;;;;;;1.80;0.20;;;;;;;15.08;100.00;98555.27;104313;1257;73012;-49
2023/06/29 03:26:55;;;;;;;0.30;0.20;;;;;;;15.09;100.00;98560.84;104207;1262;67888;-50
2023/06/29 03:29:22;;;;;;;3.50;0.30;;;;;;;15.09;100.00;98562.05;104144;1262;71388;-49
2023/06/29 03:31:49;;;;;;;0.30;0.30;;;;;;;15.10;100.00;98561.27;104273;1262;62745;-47
2023/06/29 03:34:17;;;;;;;0.30;0.30;;;;;;;15.11;100.00;98565.86;104503;1262;60563;-48
2023/06/29 03:36:44;;;;;;;0.60;0.30;;;;;;;15.14;100.00;98564.50;104594;1259;72573;-48
2023/06/29 03:39:12;;;;;;;0.30;0.20;;;;;;;15.17;100.00;98560.30;104563;1262;67150;-47
2023/06/29 03:41:39;;;;;;;0.30;0.20;;;;;;;15.19;100.00;98561.61;104658;1258;71127;-47
2023/06/29 03:44:07;;;;;;;0.70;0.30;;;;;;;15.21;100.00;98563.26;104620;1261;61726;-49
2023/06/29 03:46:34;;;;;;;0.60;0.20;;;;;;;15.23;100.00;98561.82;104989;1262;60436;-48
2023/06/29 03:49:02;;;;;;;1.50;0.30;;;;;;;15.22;100.00;98564.05;104601;1262;75883;-48
2023/06/29 03:51:29;;;;;;;0.90;0.20;;;;;;;15.23;100.00;98563.63;104644;1263;68094;-49
2023/06/29 03:53:56;;;;;;;0.50;0.30;;;;;;;15.23;100.00;98564.85;104731;1256;72477;-48
2023/06/29 03:56:23;;;;;;;0.60;0.50;;;;;;;15.25;100.00;98564.01;104661;1256;61683;-49
2023/06/29 03:58:52;;;;;;;0.50;0.30;;;;;;;15.26;100.00;98560.98;104781;1257;59314;-48
2023/06/29 04:01:19;;;;;;;1.90;0.40;;;;;;;15.26;100.00;98559.20;104847;1258;72657;-48
2023/06/29 04:03:46;;;;;;;0.80;0.30;;;;;;;15.29;100.00;98557.67;104682;1262;68002;-47
2023/06/29 04:06:14;;;;;;;0.30;0.30;;;;;;;15.32;100.00;98560.85;104596;1260;72688;-48
2023/06/29 04:08:41;;;;;;;1.10;0.40;;;;;;;15.33;100.00;98557.86;104609;1261;61627;-47
2023/06/29 04:11:09;;;;;;;0.40;0.30;;;;;;;15.33;100.00;98553.70;104488;1257;60767;-48
2023/06/29 04:13:39;;;;;;;0.70;0.40;;;;;;;15.34;100.00;98552.73;108774;1260;74386;-48
2023/06/29 04:16:06;;;;;;;0.50;0.30;;;;;;;15.35;100.00;98549.20;108711;1256;65683;-48
2023/06/29 04:18:37;;;;;;;1.50;0.40;;;;;;;15.36;100.00;98551.99;108684;1257;71932;-49
2023/06/29 04:21:04;;;;;;;1.40;0.30;;;;;;;15.37;100.00;98548.81;108601;1260;60534;-49
2023/06/29 04:23:31;;;;;;;0.40;0.40;;;;;;;15.38;100.00;98551.08;108850;1255;58395;-48
2023/06/29 04:26:02;;;;;;;0.40;0.40;;;;;;;15.41;100.00;98554.44;108707;1257;72969;-49
2023/06/29 04:28:33;;;;;;;0.90;0.40;;;;;;;15.43;100.00;98556.26;108628;1260;67580;-49
2023/06/29 04:31:01;;;;;;;0.70;0.50;;;;;;;15.45;100.00;98559.17;108613;1258;70167;-49
2023/06/29 04:33:28;;;;;;;1.50;0.40;;;;;;;15.47;100.00;98560.04;108718;1258;63899;-48
2023/06/29 04:35:56;;;;;;;1.50;0.50;;;;;;;15.50;100.00;98555.30;108594;1257;59072;-48
2023/06/29 04:38:25;;;;;;;0.60;0.50;;;;;;;15.52;100.00;98558.34;108752;1257;72620;-49
2023/06/29 04:41:05;;;;;;;0.60;0.50;;;;;;;15.54;100.00;98556.45;108767;1257;67914;-49
2023/06/29 04:43:32;;;;;;;0.50;0.50;;;;;;;15.56;100.00;98556.30;105995;1257;72827;-48
2023/06/29 04:46:03;;;;;;;1.20;0.50;;;;;;;15.59;100.00;98558.17;104145;1257;61682;-47
2023/06/29 04:48:37;;;;;;;0.80;0.50;;;;;;;15.62;100.00;98562.05;104561;1257;62921;-48
2023/06/29 04:51:05;;;;;;;0.50;0.40;;;;;;;15.66;100.00;98562.92;107050;1257;72655;-49
2023/06/29 04:53:34;;;;;;;2.40;0.50;;;;;;;15.67;100.00;98562.30;105994;1260;67054;-47
2023/06/29 04:56:04;;;;;;;0.90;0.50;;;;;;;15.70;100.00;98561.14;105036;1258;71390;-48
2023/06/29 04:58:31;;;;;;;0.70;0.50;;;;;;;15.74;100.00;98558.66;104581;1258;63001;-48
2023/06/29 05:00:59;;;;;;;1.00;0.50;;;;;;;15.76;100.00;98561.89;104235;1258;60448;-48
2023/06/29 05:03:26;;;;;;;0.90;0.40;;;;;;;15.76;100.00;98558.09;104549;1258;73813;-48
2023/06/29 05:05:54;;;;;;;0.50;0.40;;;;;;;15.78;100.00;98562.06;104501;1257;67557;-48
2023/06/29 05:08:21;;;;;;;4.40;0.40;;;;;;;15.79;100.00;98561.29;104593;1261;72949;-50
2023/06/29 05:10:50;;;;;;;0.90;0.50;;;;;;;15.79;100.00;98557.04;104289;1257;62250;-47
2023/06/29 05:13:17;;;;;;;0.70;0.60;;;;;;;15.81;100.00;98557.45;104450;1261;61742;-48
2023/06/29 05:15:47;;;;;;;1.20;0.60;;;;;;;15.82;100.00;98560.41;104374;1258;74795;-47
2023/06/29 05:18:15;;;;;;;1.70;0.70;;;;;;;15.83;100.00;98561.80;104515;1261;66894;-47
2023/06/29 05:20:43;;;;;;;0.60;0.50;;;;;;;15.83;100.00;98561.61;104426;1262;72652;-48
2023/06/29 05:23:11;;;;;;;0.90;0.60;;;;;;;15.83;100.00;98559.77;104324;1262;62166;-48
2023/06/29 05:25:39;;;;;;;0.60;0.60;;;;;;;15.84;100.00;98556.42;104525;1260;60523;-47
2023/06/29 05:28:07;;;;;;;0.70;0.60;;;;;;;15.84;100.00;98554.23;104534;1257;73881;-48
2023/06/29 05:30:35;;;;;;;1.20;0.70;;;;;;;15.86;100.00;98553.76;104396;1256;68035;-49
2023/06/29 05:33:03;;;;;;;1.10;0.70;;;;;;;15.89;100.00;98556.92;104323;1260;71382;-49
2023/06/29 05:35:31;;;;;;;1.10;0.70;;;;;;;15.94;100.00;98557.78;104320;1258;61784;-48
2023/06/29 05:38:00;;;;;;;0.60;0.50;;;;;;;15.98;100.00;98558.45;104958;1260;60590;-48
2023/06/29 05:40:27;;;;;;;1.10;0.50;;;;;;;16.04;100.00;98561.52;105155;1256;73813;-48
2023/06/29 05:42:55;;;;;;;0.70;0.70;;;;;;;16.10;100.00;98557.39;105562;1257;67715;-49
2023/06/29 05:45:22;;;;;;;5.30;0.70;;;;;;;16.14;100.00;98563.54;104918;1263;72505;-47
2023/06/29 05:47:50;;;;;;;2.10;0.50;;;;;;;16.16;100.00;98562.78;104523;1257;61920;-47
2023/06/29 05:50:20;;;;;;;0.80;0.70;;;;;;;16.20;100.00;98558.83;104731;1257;60448;-47
2023/06/29 05:52:47;;;;;;;2.00;0.70;;;;;;;16.25;100.00;98558.70;104747;1258;72694;-47
2023/06/29 05:55:19;;;;;;;0.70;0.60;;;;;;;16.31;100.00;98558.75;104924;1258;66772;-48
2023/06/29 05:57:47;;;;;;;0.60;0.60;;;;;;;16.36;100.00;98562.30;105123;1257;71877;-47
2023/06/29 06:00:15;;;;;;;3.70;0.70;;;;;;;16.39;100.00;98560.88;105170;1258;60683;-49
2023/06/29 06:02:44;;;;;;;1.20;0.70;;;;;;;16.42;100.00;98562.06;104889;1256;60441;-48
2023/06/29 06:05:11;;;;;;;0.90;0.70;;;;;;;16.48;100.00;98561.02;104365;1256;72798;-50
2023/06/29 06:07:39;;;;;;;0.80;0.60;;;;;;;16.53;100.00;98555.80;104239;1258;66449;-51
2023/06/29 06:10:07;;;;;;;0.80;0.70;;;;;;;16.58;100.00;98560.23;104531;1260;72649;-47
2023/06/29 06:12:34;;;;;;;2.60;0.70;;;;;;;16.62;100.00;98558.79;104503;1261;62185;-48
2023/06/29 06:15:02;;;;;;;1.50;0.70;;;;;;;16.64;100.00;98557.14;104116;1260;60475;-46
2023/06/29 06:17:31;;;;;;;1.00;0.80;;;;;;;16.69;100.00;98563.26;104441;1258;72983;-48
2023/06/29 06:19:58;;;;;;;3.90;0.70;;;;;;;16.71;100.00;98561.43;104810;1258;66788;-45
2023/06/29 06:22:25;;;;;;;0.70;0.70;;;;;;;16.72;100.00;98562.04;104276;1258;72724;-48
2023/06/29 06:24:53;;;;;;;3.90;1.00;;;;;;;16.74;100.00;98562.98;104224;1257;60473;-46
2023/06/29 06:27:20;;;;;;;2.90;0.90;;;;;;;16.76;100.00;98562.07;104501;1255;60563;-47
2023/06/29 06:29:47;;;;;;;0.80;0.80;;;;;;;16.76;100.00;98561.83;104406;1258;74607;-48
2023/06/29 06:32:15;;;;;;;1.00;0.70;;;;;;;16.76;100.00;98562.48;104228;1254;67641;-48
2023/06/29 06:34:43;;;;;;;8.40;0.70;;;;;;;16.75;100.00;98561.85;106652;1254;73001;-47
2023/06/29 06:37:11;;;;;;;7.90;0.80;;;;;;;16.74;100.00;98559.93;104557;1260;60563;-47
2023/06/29 06:39:38;;;;;;;0.60;0.60;;;;;;;16.75;100.00;98565.98;104628;1254;60361;-48
2023/06/29 06:42:05;;;;;;;0.60;0.60;;;;;;;16.77;100.00;98566.80;104576;1254;73824;-48
2023/06/29 06:44:35;;;;;;;3.50;0.70;;;;;;;16.78;100.00;98565.30;108579;1253;66330;-49
2023/06/29 06:47:03;;;;;;;0.80;0.50;;;;;;;16.79;100.00;98565.24;106048;1256;71388;-47
2023/06/29 06:49:31;;;;;;;1.00;0.70;;;;;;;16.80;100.00;98559.13;105140;1254;61716;-48
2023/06/29 06:52:02;;;;;;;0.70;0.70;;;;;;;16.84;100.00;98557.51;104742;1258;60380;-46
2023/06/29 06:54:29;;;;;;;0.60;0.60;;;;;;;16.91;100.00;98562.51;104633;1254;73798;-46
2023/06/29 06:56:56;;;;;;;1.50;0.70;;;;;;;16.97;100.00;98563.69;104672;1253;67860;-48
2023/06/29 06:59:24;;;;;;;1.00;0.70;;;;;;;17.02;100.00;98562.45;104603;1254;73498;-46
2023/06/29 07:01:51;;;;;;;1.90;1.00;;;;;;;17.06;100.00;98565.74;104634;1259;61639;-46
2023/06/29 07:04:18;;;;;;;0.90;0.80;;;;;;;17.09;100.00;98567.10;104628;1254;60582;-47
2023/06/29 07:06:46;;;;;;;0.80;0.70;;;;;;;17.11;100.00;98564.77;104885;1255;73216;-46
2023/06/29 07:09:14;;;;;;;3.10;1.00;;;;;;;17.13;100.00;98564.42;108926;1254;66668;-48
2023/06/29 07:11:41;;;;;;;1.50;0.70;;;;;;;17.16;100.00;98563.58;108793;1254;71439;-49
2023/06/29 07:14:08;;;;;;;0.90;0.70;;;;;;;17.22;100.00;98560.81;108786;1254;60383;-48
2023/06/29 07:16:36;;;;;;;0.90;0.70;;;;;;;17.25;100.00;98561.02;108780;1253;58893;-49
2023/06/29 07:19:04;;;;;;;1.40;0.70;;;;;;;17.27;100.00;98561.40;108790;1254;73830;-49
2023/06/29 07:21:34;;;;;;;2.40;0.70;;;;;;;17.26;100.00;98566.77;108808;1253;65469;-48
2023/06/29 07:24:02;;;;;;;0.70;0.70;;;;;;;17.25;100.00;98563.02;108769;1254;72434;-47
2023/06/29 07:26:37;;;;;;;0.70;0.70;;;;;;;17.27;100.00;98559.77;108813;1254;61674;-49
2023/06/29 07:29:05;;;;;;;3.20;0.70;;;;;;;17.31;100.00;98560.65;108724;1254;59594;-48
2023/06/29 07:31:32;;;;;;;0.70;0.60;;;;;;;17.35;100.00;98558.79;108871;1254;73909;-49
2023/06/29 07:34:00;;;;;;;1.40;0.80;;;;;;;17.41;100.00;98558.22;108687;1259;67723;-48
2023/06/29 07:36:29;;;;;;;1.10;0.70;;;;;;;17.49;100.00;98552.09;108667;1254;72715;-49
2023/06/29 07:38:56;;;;;;;1.30;0.70;;;;;;;17.55;100.00;98554.20;108719;1253;61679;-50
2023/06/29 07:41:24;;;;;;;0.80;0.70;;;;;;;17.59;100.00;98556.66;108684;1254;60149;-48
2023/06/29 07:43:55;;;;;;;1.60;0.60;;;;;;;17.64;100.00;98560.63;108784;1253;72617;-49
2023/06/29 07:46:22;;;;;;;0.80;0.80;;;;;;;17.68;100.00;98560.77;108632;1253;66379;-48
2023/06/29 07:48:50;;;;;;;1.00;0.70;;;;;;;17.73;100.00;98566.08;108689;1253;71290;-48
2023/06/29 07:51:18;;;;;;;1.20;0.70;;;;;;;17.77;100.00;98563.89;107212;1258;61704;-47
2023/06/29 07:53:45;;;;;;;4.10;0.80;;;;;;;17.78;100.00;98567.27;104288;1259;62379;-47
2023/06/29 07:56:12;;;;;;;1.70;1.10;;;;;;;17.74;100.00;98566.68;104340;1254;72534;-47
2023/06/29 07:58:40;;;;;;;1.00;0.90;;;;;;;17.72;100.00;98567.25;104140;1254;66388;-48
2023/06/29 08:01:08;;;;;;;1.00;0.80;;;;;;;17.73;100.00;98565.16;104189;1254;72418;-48
2023/06/29 08:03:36;;;;;;;0.90;0.80;;;;;;;17.75;100.00;98567.31;103965;1254;61707;-48
2023/06/29 08:06:23;;;;;;;0.80;0.80;;;;;;;17.80;100.00;98566.85;104467;1256;60368;-47
2023/06/29 08:08:54;;;;;;;2.30;0.90;;;;;;;17.88;100.00;98562.67;104286;1254;73952;-48
2023/06/29 08:11:24;;;;;;;1.70;0.70;;;;;;;17.92;100.00;98567.89;104560;1262;70165;-47
2023/06/29 08:13:51;;;;;;;1.00;0.70;;;;;;;17.96;100.00;98561.98;104412;1254;71405;-47
2023/06/29 08:16:19;;;;;;;2.00;0.70;;;;;;;18.01;100.00;98565.94;104666;1254;60534;-48
2023/06/29 08:18:46;;;;;;;0.80;0.70;;;;;;;18.02;100.00;98566.84;105509;1253;60509;-48
2023/06/29 08:21:13;;;;;;;2.40;0.70;;;;;;;18.03;100.00;98571.30;104911;1255;73957;-47
2023/06/29 08:23:41;;;;;;;1.80;0.60;;;;;;;18.04;100.00;98567.59;104554;1253;67773;-47
2023/06/29 08:26:08;;;;;;;2.70;0.70;;;;;;;18.03;100.00;98571.27;104414;1254;72666;-47
2023/06/29 08:28:35;;;;;;;0.70;0.70;;;;;;;18.00;100.00;98569.11;104814;1254;60876;-47
2023/06/29 08:31:02;;;;;;;0.50;0.40;;;;;;;17.98;100.00;98574.39;104794;1256;62140;-46
2023/06/29 08:33:33;;;;;;;1.20;0.60;;;;;;;17.96;100.00;98576.52;105342;1254;72671;-47
2023/06/29 08:36:01;;;;;;;0.70;0.70;;;;;;;17.99;100.00;98572.30;104623;1254;66605;-46
2023/06/29 08:38:28;;;;;;;0.70;0.50;;;;;;;18.03;100.00;98570.83;104682;1258;72764;-46
2023/06/29 08:40:57;;;;;;;0.60;0.60;;;;;;;18.10;100.00;98569.52;104403;1254;62201;-47
2023/06/29 08:43:25;;;;;;;1.60;0.60;;;;;;;18.18;100.00;98569.13;104418;1253;60512;-48
2023/06/29 08:45:52;;;;;;;1.10;0.60;;;;;;;18.24;100.00;98563.10;104942;1254;73813;-47
2023/06/29 08:48:20;;;;;;;0.60;0.50;;;;;;;18.28;100.00;98562.32;104867;1254;68449;-48
2023/06/29 08:50:51;;;;;;;0.60;0.60;;;;;;;18.30;100.00;98559.39;104584;1253;72761;-47
2023/06/29 08:53:20;;;;;;;0.80;0.60;;;;;;;18.27;100.00;98560.60;108281;1253;60688;-49
2023/06/29 08:55:49;;;;;;;4.70;0.60;;;;;;;18.25;100.00;98557.54;105204;1256;61808;-48
2023/06/29 08:58:16;;;;;;;1.60;0.70;;;;;;;18.24;100.00;98555.81;104633;1260;74355;-48
2023/06/29 09:00:44;;;;;;;1.30;0.70;;;;;;;18.23;100.00;98559.58;104656;1255;67683;-49
2023/06/29 09:03:12;;;;;;;0.80;0.60;;;;;;;18.16;100.00;98565.17;108906;1253;74748;-47
2023/06/29 09:05:46;;;;;;;1.90;0.60;;;;;;;18.06;100.00;98567.60;108719;1253;62517;-48
2023/06/29 09:08:13;;;;;;;4.30;0.70;;;;;;;17.97;100.00;98568.86;108863;1254;58873;-47
2023/06/29 09:10:41;;;;;;;1.10;0.60;;;;;;;17.90;100.00;98572.92;107468;1253;72801;-48
2023/06/29 09:13:09;;;;;;;0.50;0.50;;;;;;;17.85;100.00;98572.08;105209;1258;70177;-49
2023/06/29 09:15:38;;;;;;;1.10;0.60;;;;;;;17.83;100.00;98574.77;104971;1257;74104;-48
2023/06/29 09:18:07;;;;;;;2.90;0.70;;;;;;;17.85;100.00;98572.93;104888;1254;63795;-48
2023/06/29 09:20:35;;;;;;;1.00;0.60;;;;;;;17.85;100.00;98570.20;105679;1254;61254;-49
2023/06/29 09:23:05;;;;;;;1.20;0.70;;;;;;;17.90;100.00;98562.08;105900;1254;73823;-49
2023/06/29 09:25:33;;;;;;;2.40;0.70;;;;;;;18.00;100.00;98563.46;104920;1254;70032;-48
2023/06/29 09:28:05;;;;;;;0.70;0.60;;;;;;;18.11;100.00;98562.50;105498;1253;73395;-50
2023/06/29 09:30:40;;;;;;;1.50;0.70;;;;;;;18.27;100.00;98558.95;106319;1254;63156;-50
2023/06/29 09:33:09;;;;;;;3.60;1.10;;;;;;;18.40;100.00;98554.36;105201;1253;60132;-48
2023/06/29 09:35:40;;;;;;;1.40;0.70;;;;;;;18.49;100.00;98558.73;105898;1253;73051;-47
2023/06/29 09:38:07;;;;;;;0.60;0.60;;;;;;;18.56;100.00;98556.79;104854;1257;66377;-48
2023/06/29 09:40:51;;;;;;;0.60;0.60;;;;;;;18.63;100.00;98555.59;104867;1253;71261;-50
2023/06/29 09:43:29;;;;;;;2.00;0.70;;;;;;;18.69;100.00;98554.24;105161;1260;61113;-48
2023/06/29 09:46:07;;;;;;;0.70;0.70;;;;;;;18.69;100.00;98554.94;104791;1253;60905;-49
2023/06/29 09:48:45;;;;;;;1.50;0.60;;;;;;;18.67;100.00;98559.54;105299;1254;76511;-48
2023/06/29 09:51:22;;;;;;;1.20;0.70;;;;;;;18.68;100.00;98555.66;104907;1257;67551;-48
2023/06/29 09:53:50;;;;;;;1.10;0.60;;;;;;;18.70;100.00;98558.31;106016;1257;72934;-48
2023/06/29 09:56:18;;;;;;;2.00;0.60;;;;;;;18.72;100.00;98554.47;104788;1254;62365;-48
2023/06/29 09:58:46;;;;;;;2.90;0.60;;;;;;;18.73;100.00;98550.73;105024;1258;60509;-48
2023/06/29 10:01:15;;;;;;;1.80;0.60;;;;;;;18.78;100.00;98546.25;104804;1255;72765;-48
2023/06/29 10:03:45;;;;;;;0.80;0.50;;;;;;;18.88;100.00;98543.80;104919;1253;71581;-48
2023/06/29 10:06:19;;;;;;;2.30;0.60;;;;;;;19.01;100.00;98539.52;104894;1252;72711;-49
2023/06/29 10:08:53;;;;;;;0.40;0.40;;;;;;;19.13;100.00;98539.23;104955;1254;61820;-49
2023/06/29 10:11:21;;;;;;;0.50;0.50;;;;;;;19.23;100.00;98532.30;108827;1254;60749;-48
2023/06/29 10:13:49;;;;;;;2.40;0.40;;;;;;;19.36;100.00;98521.03;108885;1253;74701;-48
2023/06/29 10:16:17;;;;;;;2.00;0.40;;;;;;;19.51;100.00;98521.58;108934;1253;66617;-49
2023/06/29 10:18:46;;;;;;;0.60;0.40;;;;;;;19.68;100.00;98517.30;107568;1255;71809;-50
2023/06/29 10:21:16;;;;;;;0.60;0.50;;;;;;;19.81;100.00;98509.02;105218;1257;61653;-49
2023/06/29 10:23:48;;;;;;;0.50;0.40;;;;;;;19.90;100.00;98510.54;104787;1254;60884;-48
2023/06/29 10:26:18;;;;;;;0.40;0.40;;;;;;;19.97;100.00;98511.70;105069;1258;74322;-49
2023/06/29 10:28:46;;;;;;;0.70;0.50;;;;;;;19.98;100.00;98513.17;108788;1253;67747;-48
2023/06/29 10:31:17;;;;;;;1.10;0.50;;;;;;;19.98;100.00;98513.59;108884;1254;72690;-47
2023/06/29 10:33:48;;;;;;;1.40;0.40;;;;;;;19.92;100.00;98510.89;108997;1255;59158;-47
2023/06/29 10:36:16;;;;;;;0.90;0.50;;;;;;;19.86;100.00;98506.45;109064;1253;60357;-47
2023/06/29 10:38:44;;;;;;;1.40;0.30;;;;;;;19.90;100.00;98504.63;109002;1253;72190;-49
2023/06/29 10:41:25;;;;;;;1.50;0.50;;;;;;;19.96;100.00;98502.10;108958;1253;66622;-47
2023/06/29 10:44:00;;;;;;;1.00;0.40;;;;;;;20.04;100.00;98499.59;109038;1254;71411;-47
2023/06/29 10:46:47;;;;;;;2.70;0.50;;;;;;;20.12;100.00;98493.88;104886;1256;61732;-46
2023/06/29 10:49:21;;;;;;;2.20;0.40;;;;;;;20.22;100.00;98493.64;106471;1257;62818;-47
2023/06/29 10:52:00;;;;;;;;;;;;;;;20.31;100.00;98485.04;104811;1255;72710;-48
2023/06/29 10:54:27;;;;;;;1.90;0.50;;;;;;;20.38;100.00;98488.23;104967;1257;68451;-46
2023/06/29 10:57:02;;;;;;;0.50;0.50;;;;;;;20.47;100.00;98491.16;105355;1254;71768;-47
2023/06/29 10:59:31;;;;;;;1.00;0.60;;;;;;;20.54;100.00;98490.38;104420;1255;60557;-49
2023/06/29 11:01:59;;;;;;;3.20;0.50;;;;;;;20.58;100.00;98494.00;104810;1257;60440;-48
2023/06/29 11:04:27;;;;;;;1.70;0.60;;;;;;;20.57;100.00;98488.23;104954;1255;73880;-48
2023/06/29 11:06:54;;;;;;;1.10;0.60;;;;;;;20.59;100.00;98489.84;104887;1256;66635;-49
2023/06/29 11:09:22;;;;;;;2.90;0.50;;;;;;;20.65;100.00;98493.60;104698;1252;72013;-50
2023/06/29 11:11:49;;;;;;;0.70;0.50;;;;;;;20.70;100.00;98489.64;104643;1254;60593;-49
2023/06/29 11:14:17;;;;;;;0.70;0.50;;;;;;;20.76;100.00;98495.17;104501;1253;60535;-49
2023/06/29 11:16:47;;;;;;;0.50;0.40;;;;;;;20.78;100.00;98501.95;104741;1255;72652;-49
2023/06/29 11:19:14;;;;;;;0.60;0.50;;;;;;;20.74;100.00;98526.12;104754;1253;66786;-49
2023/06/29 11:21:41;;;;;;;3.60;0.50;;;;;;;20.51;100.00;98532.95;104791;1257;70644;-49
2023/06/29 11:24:09;;;;;;;1.60;0.40;;;;;;;20.12;100.00;98540.11;104751;1253;60479;-49